Time;durP1;ratioP1;P1;durP2;ratioP2;P2;SDS_P1;SDS_P2;PMS_P1;PMS_P2;Temp;Humidity;BMP_temperature;BMP_pressure;BME280_temperature;BME280_humidity;BME280_pressure;Samples;Min_cycle;Max_cycle;Signal;HPM_P1;HPM_P2
2021/12/22 00:01:25;;;;;;;31.45;16.05;;;;;;;;;;6205690;23;20088;-42
2021/12/22 00:03:51;;;;;;;26.10;16.50;;;;;;;;;;6205922;23;20441;-42
2021/12/22 00:06:22;;;;;;;32.35;18.52;;;;;;;;;;6206777;23;20019;-41
2021/12/22 00:08:48;;;;;;;27.63;17.08;;;;;;;;;;6206190;23;20083;-42
2021/12/22 00:11:13;;;;;;;29.70;17.88;;;;;;;;;;6202874;23;20044;-42
2021/12/22 00:13:39;;;;;;;23.42;17.00;;;;;;;;;;6201708;23;20393;-41
2021/12/22 00:16:04;;;;;;;22.67;15.32;;;;;;;;;;6202980;23;20012;-43
2021/12/22 00:18:29;;;;;;;26.05;15.65;;;;;;;;;;6201595;23;20012;-41
2021/12/22 00:20:55;;;;;;;26.35;16.25;;;;;;;;;;6203292;23;20024;-42
2021/12/22 00:23:20;;;;;;;29.98;18.35;;;;;;;;;;6201851;23;20043;-41
2021/12/22 00:25:46;;;;;;;27.73;16.05;;;;;;;;;;6203528;23;20008;-44
2021/12/22 00:28:11;;;;;;;28.70;15.30;;;;;;;;;;6203286;23;20017;-41
2021/12/22 00:30:38;;;;;;;31.45;17.05;;;;;;;;;;6202780;23;20051;-42
2021/12/22 00:33:05;;;;;;;27.17;16.23;;;;;;;;;;6204717;23;20025;-41
2021/12/22 00:35:39;;;;;;;23.50;16.05;;;;;;;;;;6204483;23;20096;-42
2021/12/22 00:38:08;;;;;;;30.10;16.88;;;;;;;;;;6205061;23;20012;-42
2021/12/22 00:40:33;;;;;;;23.73;16.55;;;;;;;;;;6204869;23;20016;-42
2021/12/22 00:42:59;;;;;;;24.42;15.95;;;;;;;;;;6205027;23;20039;-42
2021/12/22 00:45:27;;;;;;;25.63;14.52;;;;;;;;;;6204506;23;20428;-44
2021/12/22 00:47:53;;;;;;;27.23;14.63;;;;;;;;;;6204864;23;20016;-42
2021/12/22 00:50:18;;;;;;;21.65;14.55;;;;;;;;;;6204711;23;20171;-41
2021/12/22 00:52:43;;;;;;;23.38;13.77;;;;;;;;;;6205202;23;20043;-43
2021/12/22 00:55:08;;;;;;;19.33;12.95;;;;;;;;;;6205419;23;20476;-42
2021/12/22 00:57:35;;;;;;;20.67;13.77;;;;;;;;;;6204279;23;20066;-42
2021/12/22 01:00:00;;;;;;;21.10;13.32;;;;;;;;;;6205539;23;20045;-42
2021/12/22 01:02:26;;;;;;;26.73;13.85;;;;;;;;;;6204892;23;20012;-42
2021/12/22 01:04:51;;;;;;;25.60;14.88;;;;;;;;;;6204086;23;20492;-44
2021/12/22 01:07:16;;;;;;;28.35;15.75;;;;;;;;;;6205176;23;20085;-41
2021/12/22 01:09:42;;;;;;;23.17;13.57;;;;;;;;;;6207791;23;20005;-43
2021/12/22 01:12:10;;;;;;;21.25;14.82;;;;;;;;;;6208579;23;20103;-41
2021/12/22 01:14:37;;;;;;;25.52;16.23;;;;;;;;;;6207313;23;20015;-41
2021/12/22 01:17:03;;;;;;;23.88;15.45;;;;;;;;;;6231367;23;20039;-44
2021/12/22 01:20:20;;;;;;;23.48;14.98;;;;;;;;;;6207227;23;20016;-42
2021/12/22 01:23:02;;;;;;;26.15;15.20;;;;;;;;;;6191476;23;20044;-42
2021/12/22 01:25:07;;;;;;;27.80;15.75;;;;;;;;;;6207921;23;20009;-44
2021/12/22 01:27:35;;;;;;;24.75;16.55;;;;;;;;;;6207044;23;20495;-41
2021/12/22 01:30:03;;;;;;;25.92;16.23;;;;;;;;;;6207837;23;20023;-42
2021/12/22 01:32:28;;;;;;;26.15;14.40;;;;;;;;;;6207875;23;20043;-43
2021/12/22 01:34:53;;;;;;;20.65;13.70;;;;;;;;;;6207299;23;20087;-54
2021/12/22 01:37:19;;;;;;;21.45;13.55;;;;;;;;;;6207828;23;20016;-41
2021/12/22 01:39:44;;;;;;;18.58;13.25;;;;;;;;;;6207326;23;20456;-43
2021/12/22 01:42:09;;;;;;;25.45;14.73;;;;;;;;;;6206002;23;20008;-42
2021/12/22 01:50:37;;;;;;;26.30;14.90;;;;;;;;;;6207144;23;20027;-42
2021/12/22 01:53:29;;;;;;;27.52;14.75;;;;;;;;;;6205533;23;20040;-42
2021/12/22 01:56:06;;;;;;;22.38;14.80;;;;;;;;;;6205346;23;20013;-41
2021/12/22 01:58:33;;;;;;;23.13;13.70;;;;;;;;;;6205701;23;20016;-42
2021/12/22 02:01:00;;;;;;;22.90;14.50;;;;;;;;;;6205650;23;20013;-41
2021/12/22 02:03:25;;;;;;;25.48;15.45;;;;;;;;;;6205778;23;20009;-41
2021/12/22 02:05:50;;;;;;;26.38;14.05;;;;;;;;;;6205034;23;20016;-42
2021/12/22 02:08:16;;;;;;;21.27;13.68;;;;;;;;;;6205889;23;20470;-42
2021/12/22 02:10:46;;;;;;;27.17;14.38;;;;;;;;;;6205901;23;20353;-41
2021/12/22 02:13:16;;;;;;;22.85;13.43;;;;;;;;;;6206271;23;20559;-41
2021/12/22 02:15:41;;;;;;;;;;;;;;;;;;6205839;23;20009;-41
2021/12/22 02:18:06;;;;;;;24.27;13.82;;;;;;;;;;6206045;23;20347;-42
2021/12/22 02:20:32;;;;;;;23.52;14.88;;;;;;;;;;6204437;23;20322;-43
2021/12/22 02:22:58;;;;;;;21.98;12.30;;;;;;;;;;6206950;23;20481;-41
2021/12/22 02:25:32;;;;;;;20.90;13.48;;;;;;;;;;6204485;23;20019;-42
2021/12/22 02:27:58;;;;;;;20.83;13.70;;;;;;;;;;6206082;23;20404;-41
2021/12/22 02:30:28;;;;;;;20.25;13.00;;;;;;;;;;6205024;23;20044;-42
2021/12/22 02:35:27;;;;;;;21.77;12.85;;;;;;;;;;6205535;23;20445;-41
2021/12/22 02:37:52;;;;;;;19.45;13.15;;;;;;;;;;6205463;23;20072;-44
2021/12/22 02:40:24;;;;;;;24.52;13.88;;;;;;;;;;6205555;23;20071;-44
2021/12/22 02:42:53;;;;;;;20.38;11.55;;;;;;;;;;6205839;23;20005;-41
2021/12/22 02:45:19;;;;;;;18.73;11.68;;;;;;;;;;6205434;23;20020;-41
2021/12/22 02:47:44;;;;;;;21.05;12.63;;;;;;;;;;6205174;23;20013;-42
2021/12/22 02:50:10;;;;;;;20.45;12.10;;;;;;;;;;6151481;23;1266290;-41
2021/12/22 02:53:05;;;;;;;20.27;12.50;;;;;;;;;;6206166;23;20028;-44
2021/12/22 02:55:29;;;;;;;20.27;11.85;;;;;;;;;;6206222;23;20013;-42
2021/12/22 02:57:58;;;;;;;26.70;13.18;;;;;;;;;;6206866;23;20009;-42
2021/12/22 03:00:47;;;;;;;23.17;11.98;;;;;;;;;;6205385;23;20012;-41
2021/12/22 03:05:58;;;;;;;20.08;12.15;;;;;;;;;;6207011;23;20024;-42
2021/12/22 03:08:23;;;;;;;18.50;12.00;;;;;;;;;;6206661;23;20004;-43
2021/12/22 03:10:51;;;;;;;17.30;11.27;;;;;;;;;;6206632;23;20032;-41
2021/12/22 03:13:19;;;;;;;22.08;13.15;;;;;;;;;;6206597;23;20449;-41
2021/12/22 03:15:44;;;;;;;19.45;11.27;;;;;;;;;;6206463;23;20054;-41
2021/12/22 03:18:10;;;;;;;18.05;11.25;;;;;;;;;;6206990;23;20441;-42
2021/12/22 03:20:36;;;;;;;21.65;12.00;;;;;;;;;;6206031;23;20012;-41
2021/12/22 03:23:01;;;;;;;18.73;12.40;;;;;;;;;;6206960;23;20011;-41
2021/12/22 03:25:27;;;;;;;21.08;12.75;;;;;;;;;;6202245;23;20989;-43
2021/12/22 03:27:53;;;;;;;21.13;15.05;;;;;;;;;;6206959;23;20016;-42
2021/12/22 03:30:23;;;;;;;26.50;16.30;;;;;;;;;;6206107;23;20028;-42
2021/12/22 03:32:48;;;;;;;19.65;15.13;;;;;;;;;;6206975;23;20080;-41
2021/12/22 03:35:18;;;;;;;20.10;13.90;;;;;;;;;;6206380;23;20037;-42
2021/12/22 03:37:44;;;;;;;26.42;16.08;;;;;;;;;;6205735;23;20103;-43
2021/12/22 03:40:09;;;;;;;27.20;16.98;;;;;;;;;;6206471;23;20035;-41
2021/12/22 03:42:35;;;;;;;24.45;15.98;;;;;;;;;;6205307;23;20005;-42
2021/12/22 03:45:00;;;;;;;22.75;15.80;;;;;;;;;;6204823;23;20079;-42
2021/12/22 03:47:26;;;;;;;27.40;16.90;;;;;;;;;;6205620;23;20024;-41
2021/12/22 03:49:52;;;;;;;26.55;16.52;;;;;;;;;;6207137;23;20009;-41
2021/12/22 03:52:17;;;;;;;24.23;15.68;;;;;;;;;;6203606;23;20024;-41
2021/12/22 03:54:42;;;;;;;20.77;14.80;;;;;;;;;;6206097;23;20071;-41
2021/12/22 03:57:07;;;;;;;25.55;15.43;;;;;;;;;;6206071;23;20043;-41
2021/12/22 03:59:33;;;;;;;29.83;15.70;;;;;;;;;;6205881;23;20346;-41
2021/12/22 04:01:58;;;;;;;30.10;16.60;;;;;;;;;;6206410;23;20005;-42
2021/12/22 04:04:23;;;;;;;26.55;16.98;;;;;;;;;;6206047;23;20112;-42
2021/12/22 04:06:50;;;;;;;28.45;15.82;;;;;;;;;;6206066;23;20527;-41
2021/12/22 04:09:15;;;;;;;23.15;14.95;;;;;;;;;;6205582;23;20005;-42
2021/12/22 04:11:41;;;;;;;22.58;14.93;;;;;;;;;;6206294;23;20096;-41
2021/12/22 04:14:07;;;;;;;24.17;15.57;;;;;;;;;;6206768;23;20067;-41
2021/12/22 04:16:32;;;;;;;23.45;14.70;;;;;;;;;;6204987;23;20017;-41
2021/12/22 04:18:57;;;;;;;23.00;14.73;;;;;;;;;;6206648;23;20459;-42
2021/12/22 04:21:23;;;;;;;21.20;13.77;;;;;;;;;;6205114;23;20020;-43
2021/12/22 04:23:48;;;;;;;20.88;12.65;;;;;;;;;;6206079;23;20453;-44
2021/12/22 04:26:14;;;;;;;18.08;13.45;;;;;;;;;;6205380;23;20024;-45
2021/12/22 04:28:40;;;;;;;19.40;13.57;;;;;;;;;;6206408;23;20009;-41
2021/12/22 04:31:05;;;;;;;21.25;13.73;;;;;;;;;;6205996;23;20019;-41
2021/12/22 04:33:30;;;;;;;19.30;14.23;;;;;;;;;;6206056;23;20020;-41
2021/12/22 04:35:55;;;;;;;23.33;14.02;;;;;;;;;;6206136;23;20373;-42
2021/12/22 04:38:21;;;;;;;20.90;14.52;;;;;;;;;;6205787;23;20467;-41
2021/12/22 04:40:46;;;;;;;20.25;13.93;;;;;;;;;;6205970;23;20012;-42
2021/12/22 04:43:11;;;;;;;26.88;13.95;;;;;;;;;;6205667;23;20053;-43
2021/12/22 04:45:36;;;;;;;23.02;13.13;;;;;;;;;;6205227;23;20001;-41
2021/12/22 04:48:02;;;;;;;21.67;14.95;;;;;;;;;;6206111;23;20009;-42
2021/12/22 04:50:27;;;;;;;23.00;13.30;;;;;;;;;;6205615;23;20024;-42
2021/12/22 04:55:21;;;;;;;17.65;12.65;;;;;;;;;;6205971;23;20012;-43
2021/12/22 04:57:46;;;;;;;19.70;12.43;;;;;;;;;;6206215;23;20044;-41
2021/12/22 05:00:12;;;;;;;22.73;12.73;;;;;;;;;;6206046;23;20012;-41
2021/12/22 05:02:37;;;;;;;19.30;12.65;;;;;;;;;;6205700;23;20009;-41
2021/12/22 05:05:03;;;;;;;17.80;12.13;;;;;;;;;;6205988;23;20094;-54
2021/12/22 05:07:28;;;;;;;22.38;13.88;;;;;;;;;;6205435;23;20085;-41
2021/12/22 05:09:54;;;;;;;21.13;12.90;;;;;;;;;;6206175;23;20318;-41
2021/12/22 05:12:19;;;;;;;16.50;11.95;;;;;;;;;;6205359;23;20019;-42
2021/12/22 05:14:47;;;;;;;23.92;12.30;;;;;;;;;;6205508;23;20020;-42
2021/12/22 05:17:19;;;;;;;24.83;13.43;;;;;;;;;;6206664;23;20332;-43
2021/12/22 05:19:45;;;;;;;17.50;11.02;;;;;;;;;;6207375;23;20071;-43
2021/12/22 05:22:10;;;;;;;16.77;10.60;;;;;;;;;;6208239;23;20024;-41
2021/12/22 05:24:35;;;;;;;18.08;11.65;;;;;;;;;;6206766;23;20584;-41
2021/12/22 05:27:00;;;;;;;15.88;11.27;;;;;;;;;;6208146;23;20008;-42
2021/12/22 05:29:26;;;;;;;17.60;11.30;;;;;;;;;;6207241;23;20013;-41
2021/12/22 05:31:54;;;;;;;19.10;12.02;;;;;;;;;;6208236;23;20016;-41
2021/12/22 05:34:19;;;;;;;15.32;11.35;;;;;;;;;;6206764;23;20025;-42
2021/12/22 05:36:45;;;;;;;16.55;10.35;;;;;;;;;;6207836;23;20008;-41
2021/12/22 05:39:10;;;;;;;14.25;9.75;;;;;;;;;;6207051;23;20283;-43
2021/12/22 05:41:35;;;;;;;16.98;10.63;;;;;;;;;;6207320;23;20073;-41
2021/12/22 05:44:00;;;;;;;16.75;11.63;;;;;;;;;;6207122;23;20009;-41
2021/12/22 05:46:26;;;;;;;20.55;12.60;;;;;;;;;;6207018;23;20481;-41
2021/12/22 05:48:52;;;;;;;18.42;12.02;;;;;;;;;;6207105;23;20032;-41
2021/12/22 05:51:18;;;;;;;23.05;11.80;;;;;;;;;;6206978;23;20028;-41
2021/12/22 05:53:43;;;;;;;19.67;10.45;;;;;;;;;;6207102;23;20027;-43
2021/12/22 05:56:08;;;;;;;17.92;11.95;;;;;;;;;;6208024;23;20095;-42
2021/12/22 05:58:34;;;;;;;18.38;11.68;;;;;;;;;;6206544;23;20000;-42
2021/12/22 06:00:59;;;;;;;16.48;11.52;;;;;;;;;;6208119;23;20012;-41
2021/12/22 06:03:24;;;;;;;22.02;12.13;;;;;;;;;;6206067;23;20028;-41
2021/12/22 06:05:49;;;;;;;20.85;11.30;;;;;;;;;;6208042;23;20095;-42
2021/12/22 06:08:15;;;;;;;22.67;12.93;;;;;;;;;;6206394;23;20059;-43
2021/12/22 06:10:40;;;;;;;23.15;10.75;;;;;;;;;;6207680;23;20672;-41
2021/12/22 06:13:06;;;;;;;21.65;11.93;;;;;;;;;;6207282;23;20024;-41
2021/12/22 06:15:32;;;;;;;21.02;11.75;;;;;;;;;;6230435;23;20012;-41
2021/12/22 06:17:59;;;;;;;19.42;12.27;;;;;;;;;;6207108;23;19997;-43
2021/12/22 06:20:25;;;;;;;17.67;11.73;;;;;;;;;;6206925;23;20016;-42
2021/12/22 06:22:50;;;;;;;21.40;13.68;;;;;;;;;;6230663;23;20092;-41
2021/12/22 06:25:16;;;;;;;21.00;12.38;;;;;;;;;;6206842;23;20044;-42
2021/12/22 06:27:41;;;;;;;16.98;11.60;;;;;;;;;;6207101;23;20032;-41
2021/12/22 06:30:07;;;;;;;23.40;14.05;;;;;;;;;;6207032;23;20074;-41
2021/12/22 06:32:32;;;;;;;18.30;12.52;;;;;;;;;;6202749;23;20019;-42
2021/12/22 06:34:57;;;;;;;20.35;11.90;;;;;;;;;;6202610;23;20746;-41
2021/12/22 06:37:23;;;;;;;19.98;12.85;;;;;;;;;;6202993;23;20008;-42
2021/12/22 06:39:48;;;;;;;19.63;12.63;;;;;;;;;;6204591;23;20019;-41
2021/12/22 06:42:13;;;;;;;17.25;11.13;;;;;;;;;;6203267;23;20019;-41
2021/12/22 06:44:38;;;;;;;17.60;11.50;;;;;;;;;;6204337;23;20373;-42
2021/12/22 06:47:04;;;;;;;17.95;11.80;;;;;;;;;;6203956;23;20333;-41
2021/12/22 06:49:29;;;;;;;20.10;11.70;;;;;;;;;;6203639;23;21033;-42
2021/12/22 06:51:55;;;;;;;20.88;12.32;;;;;;;;;;6204454;23;20025;-45
2021/12/22 06:54:20;;;;;;;18.23;12.63;;;;;;;;;;6202911;23;20429;-42
2021/12/22 06:56:45;;;;;;;21.38;13.30;;;;;;;;;;6204262;23;20039;-41
2021/12/22 06:59:13;;;;;;;22.02;13.00;;;;;;;;;;6204140;23;20433;-41
2021/12/22 07:01:38;;;;;;;22.15;12.88;;;;;;;;;;6203966;23;20070;-42
2021/12/22 07:04:04;;;;;;;20.30;12.93;;;;;;;;;;6203664;23;20449;-41
2021/12/22 07:06:30;;;;;;;21.95;12.90;;;;;;;;;;6202006;23;20013;-41
2021/12/22 07:08:56;;;;;;;23.05;13.13;;;;;;;;;;6203601;23;20373;-43
2021/12/22 07:11:21;;;;;;;25.13;12.27;;;;;;;;;;6203734;23;20013;-41
2021/12/22 07:13:46;;;;;;;24.10;12.40;;;;;;;;;;6203743;23;20027;-41
2021/12/22 07:16:13;;;;;;;22.67;12.80;;;;;;;;;;6203966;23;20036;-41
2021/12/22 07:18:38;;;;;;;20.52;13.75;;;;;;;;;;6201272;23;20805;-42
2021/12/22 07:21:03;;;;;;;18.88;12.40;;;;;;;;;;6203950;23;20015;-41
2021/12/22 07:23:29;;;;;;;16.92;11.38;;;;;;;;;;6203115;23;20039;-42
2021/12/22 07:25:54;;;;;;;17.98;11.50;;;;;;;;;;6203873;23;20087;-41
2021/12/22 07:28:19;;;;;;;19.20;10.98;;;;;;;;;;6203596;23;20039;-42
2021/12/22 07:30:44;;;;;;;17.63;11.57;;;;;;;;;;6202790;23;20008;-43
2021/12/22 07:33:11;;;;;;;17.55;11.38;;;;;;;;;;6204830;23;20553;-41
2021/12/22 07:35:42;;;;;;;19.60;11.07;;;;;;;;;;6202385;23;20104;-41
2021/12/22 07:38:30;;;;;;;19.98;13.15;;;;;;;;;;6204062;23;20014;-42
2021/12/22 07:40:59;;;;;;;24.27;13.40;;;;;;;;;;6204040;23;20422;-41
2021/12/22 07:43:24;;;;;;;18.93;11.70;;;;;;;;;;6202307;23;20098;-42
2021/12/22 07:45:50;;;;;;;21.50;12.77;;;;;;;;;;6203212;23;20449;-41
2021/12/22 07:48:16;;;;;;;23.55;13.10;;;;;;;;;;6203183;23;20008;-41
2021/12/22 07:50:41;;;;;;;21.88;12.73;;;;;;;;;;6203073;23;20025;-41
2021/12/22 07:53:06;;;;;;;25.67;15.15;;;;;;;;;;6203526;23;20019;-41
2021/12/22 07:55:31;;;;;;;23.15;14.70;;;;;;;;;;6202161;23;20070;-40
2021/12/22 07:57:57;;;;;;;18.58;12.07;;;;;;;;;;6203765;23;20032;-41
2021/12/22 08:00:22;;;;;;;19.40;12.38;;;;;;;;;;6202650;23;20055;-42
2021/12/22 08:02:47;;;;;;;19.70;11.68;;;;;;;;;;6203384;23;20009;-42
2021/12/22 08:05:13;;;;;;;20.42;11.27;;;;;;;;;;6203425;23;20017;-41
2021/12/22 08:07:38;;;;;;;21.80;12.57;;;;;;;;;;6201766;23;20012;-41
2021/12/22 08:10:05;;;;;;;14.55;11.45;;;;;;;;;;6206189;23;20013;-42
2021/12/22 08:12:30;;;;;;;15.63;10.48;;;;;;;;;;6206289;23;20016;-41
2021/12/22 08:14:55;;;;;;;16.63;10.55;;;;;;;;;;6206112;23;20465;-41
2021/12/22 08:17:21;;;;;;;17.50;10.80;;;;;;;;;;6206216;23;20032;-42
2021/12/22 08:19:47;;;;;;;17.50;11.40;;;;;;;;;;6204267;23;20104;-42
2021/12/22 08:22:12;;;;;;;18.83;11.23;;;;;;;;;;6206770;23;20044;-41
2021/12/22 08:24:37;;;;;;;16.80;11.25;;;;;;;;;;6205106;23;20395;-44
2021/12/22 08:27:03;;;;;;;22.52;13.32;;;;;;;;;;6206744;23;20004;-41
2021/12/22 08:29:28;;;;;;;18.80;12.63;;;;;;;;;;6204908;23;20494;-42
2021/12/22 08:31:53;;;;;;;22.83;13.57;;;;;;;;;;6207158;23;20139;-41
2021/12/22 08:34:26;;;;;;;19.40;11.60;;;;;;;;;;6205389;23;20036;-41
2021/12/22 08:39:35;;;;;;;19.05;12.00;;;;;;;;;;6205223;23;20135;-41
2021/12/22 08:42:00;;;;;;;19.90;12.70;;;;;;;;;;6206428;23;20051;-41
2021/12/22 08:44:26;;;;;;;19.98;13.95;;;;;;;;;;6205168;23;20016;-41
2021/12/22 08:46:52;;;;;;;20.17;12.85;;;;;;;;;;6207176;23;20366;-42
2021/12/22 08:49:20;;;;;;;20.38;12.40;;;;;;;;;;6204548;23;20020;-41
2021/12/22 08:51:46;;;;;;;18.73;12.02;;;;;;;;;;6205892;23;20021;-41
2021/12/22 08:54:12;;;;;;;20.45;12.82;;;;;;;;;;6205559;23;20100;-41
2021/12/22 08:56:37;;;;;;;24.95;11.88;;;;;;;;;;6207944;23;20004;-41
2021/12/22 08:59:04;;;;;;;22.70;13.38;;;;;;;;;;6208134;23;20017;-41
2021/12/22 09:01:29;;;;;;;21.45;11.63;;;;;;;;;;6207840;23;20013;-41
2021/12/22 09:03:55;;;;;;;15.73;10.70;;;;;;;;;;6208174;23;20039;-41
2021/12/22 09:06:20;;;;;;;18.83;12.50;;;;;;;;;;6207310;23;20013;-44
2021/12/22 09:08:45;;;;;;;16.45;11.55;;;;;;;;;;6207154;23;20020;-41
2021/12/22 09:11:12;;;;;;;16.33;12.07;;;;;;;;;;6208260;23;20008;-42
2021/12/22 09:13:38;;;;;;;17.58;11.23;;;;;;;;;;6207184;23;20016;-41
2021/12/22 09:16:04;;;;;;;18.70;12.55;;;;;;;;;;6208567;23;20060;-42
2021/12/22 09:18:29;;;;;;;20.77;11.52;;;;;;;;;;6206858;23;20017;-43
2021/12/22 09:20:55;;;;;;;13.57;9.85;;;;;;;;;;6208160;23;20004;-41
2021/12/22 09:23:20;;;;;;;15.77;10.93;;;;;;;;;;6206945;23;20040;-41
2021/12/22 09:25:45;;;;;;;15.63;12.00;;;;;;;;;;6208463;23;20005;-41
2021/12/22 09:28:12;;;;;;;15.48;10.55;;;;;;;;;;6207750;23;20084;-41
2021/12/22 09:30:38;;;;;;;15.68;9.68;;;;;;;;;;6207160;23;20012;-41
2021/12/22 09:33:05;;;;;;;22.00;11.45;;;;;;;;;;6207833;23;20019;-42
2021/12/22 09:35:30;;;;;;;25.45;11.68;;;;;;;;;;6207274;23;20066;-42
2021/12/22 09:37:55;;;;;;;17.88;11.00;;;;;;;;;;6207901;23;20034;-41
2021/12/22 09:40:20;;;;;;;17.90;10.77;;;;;;;;;;6230954;23;20054;-41
2021/12/22 09:42:46;;;;;;;16.25;10.38;;;;;;;;;;6207721;23;20000;-42
2021/12/22 09:45:11;;;;;;;21.48;11.52;;;;;;;;;;6230890;23;20178;-41
2021/12/22 09:47:51;;;;;;;19.40;11.95;;;;;;;;;;6207221;23;20050;-45
2021/12/22 09:50:34;;;;;;;15.52;9.90;;;;;;;;;;6206045;23;20009;-41
2021/12/22 09:52:59;;;;;;;16.25;9.23;;;;;;;;;;6207168;23;20040;-42
2021/12/22 09:55:25;;;;;;;16.73;9.50;;;;;;;;;;6207011;23;20024;-41
2021/12/22 09:57:50;;;;;;;14.60;8.43;;;;;;;;;;6207073;23;20001;-41
2021/12/22 10:00:15;;;;;;;12.95;7.72;;;;;;;;;;6206693;23;20013;-42
2021/12/22 10:02:41;;;;;;;15.07;8.10;;;;;;;;;;6207268;23;20009;-42
2021/12/22 10:05:06;;;;;;;16.05;9.27;;;;;;;;;;6206737;23;20004;-43
2021/12/22 10:07:37;;;;;;;16.67;9.07;;;;;;;;;;6205141;23;20016;-42
2021/12/22 10:10:07;;;;;;;16.40;9.95;;;;;;;;;;6207354;23;20013;-42
2021/12/22 10:12:33;;;;;;;13.40;9.30;;;;;;;;;;6206164;23;20009;-41
2021/12/22 10:15:03;;;;;;;15.45;9.05;;;;;;;;;;6207867;23;20468;-42
2021/12/22 10:17:30;;;;;;;15.40;8.77;;;;;;;;;;6207071;23;20093;-43
2021/12/22 10:19:57;;;;;;;12.07;8.10;;;;;;;;;;6203385;23;20021;-41
2021/12/22 10:22:28;;;;;;;15.20;8.07;;;;;;;;;;6204796;23;20016;-42
2021/12/22 10:24:59;;;;;;;8.88;7.07;;;;;;;;;;6204231;23;20515;-41
2021/12/22 10:27:26;;;;;;;10.02;7.18;;;;;;;;;;6204265;23;20020;-42
2021/12/22 10:29:51;;;;;;;10.18;6.82;;;;;;;;;;6204221;23;20345;-41
2021/12/22 10:32:16;;;;;;;11.63;6.57;;;;;;;;;;6203536;23;20028;-41
2021/12/22 10:34:54;;;;;;;7.93;6.30;;;;;;;;;;6204302;23;20456;-42
2021/12/22 10:37:49;;;;;;;8.52;6.30;;;;;;;;;;6203163;23;20040;-41
2021/12/22 10:40:22;;;;;;;13.38;7.57;;;;;;;;;;6183228;23;20012;-44
2021/12/22 10:42:47;;;;;;;10.77;7.22;;;;;;;;;;6204086;23;20058;-41
2021/12/22 10:45:14;;;;;;;8.48;5.88;;;;;;;;;;6204465;23;20099;-42
2021/12/22 10:50:37;;;;;;;11.80;6.13;;;;;;;;;;6202829;23;20015;-41
2021/12/22 10:53:02;;;;;;;10.00;6.25;;;;;;;;;;6204876;23;20032;-43
2021/12/22 10:55:37;;;;;;;10.70;6.85;;;;;;;;;;6202718;23;20031;-42
2021/12/22 10:58:13;;;;;;;12.68;5.75;;;;;;;;;;6204365;23;20062;-42
2021/12/22 11:00:38;;;;;;;8.65;5.68;;;;;;;;;;6202801;23;20012;-42
2021/12/22 11:03:05;;;;;;;9.82;5.85;;;;;;;;;;6203785;23;20005;-43
2021/12/22 11:05:40;;;;;;;13.73;6.03;;;;;;;;;;6204181;23;20021;-42
2021/12/22 11:08:16;;;;;;;10.38;6.45;;;;;;;;;;6205199;23;20088;-42
2021/12/22 11:10:41;;;;;;;11.63;5.38;;;;;;;;;;6205973;23;20430;-42
2021/12/22 11:13:06;;;;;;;6.25;5.07;;;;;;;;;;6206840;23;20509;-44
2021/12/22 11:15:41;;;;;;;9.88;5.35;;;;;;;;;;6205154;23;20420;-41
2021/12/22 11:18:26;;;;;;;7.55;4.32;;;;;;;;;;6230610;23;20038;-41
2021/12/22 11:21:09;;;;;;;8.48;4.68;;;;;;;;;;6205894;23;20005;-42
2021/12/22 11:23:35;;;;;;;7.15;4.07;;;;;;;;;;6205643;23;20437;-41
2021/12/22 11:26:00;;;;;;;10.45;4.28;;;;;;;;;;6205148;23;20019;-43
2021/12/22 11:28:25;;;;;;;9.63;4.82;;;;;;;;;;6205537;23;20012;-41
2021/12/22 11:30:51;;;;;;;8.05;4.40;;;;;;;;;;6207085;23;20012;-43
2021/12/22 11:33:16;;;;;;;7.63;4.05;;;;;;;;;;6206191;23;20017;-44
2021/12/22 11:35:42;;;;;;;10.60;5.30;;;;;;;;;;6207095;23;20195;-41
2021/12/22 11:38:07;;;;;;;8.77;4.75;;;;;;;;;;6206494;23;20307;-42
2021/12/22 11:40:33;;;;;;;10.43;4.05;;;;;;;;;;6206124;23;20016;-42
2021/12/22 11:42:58;;;;;;;10.57;4.80;;;;;;;;;;6205806;23;20515;-41
2021/12/22 11:45:25;;;;;;;8.98;4.80;;;;;;;;;;6206463;23;20004;-41
2021/12/22 11:47:52;;;;;;;6.72;3.83;;;;;;;;;;6205940;23;20012;-42
2021/12/22 11:50:19;;;;;;;8.68;5.35;;;;;;;;;;6206239;23;20082;-42
2021/12/22 11:53:00;;;;;;;6.80;4.63;;;;;;;;;;6206014;23;20098;-42
2021/12/22 11:55:28;;;;;;;5.90;4.82;;;;;;;;;;6229821;23;20286;-45
2021/12/22 11:58:11;;;;;;;8.68;4.75;;;;;;;;;;6228884;23;20065;-43
2021/12/22 12:00:37;;;;;;;8.60;4.85;;;;;;;;;;6204093;23;20012;-42
2021/12/22 12:03:21;;;;;;;8.27;4.30;;;;;;;;;;6204587;23;20011;-42
2021/12/22 12:06:06;;;;;;;8.50;4.68;;;;;;;;;;6205339;23;20794;-41
2021/12/22 12:08:36;;;;;;;6.40;4.57;;;;;;;;;;6205519;23;20083;-43
2021/12/22 12:11:01;;;;;;;;;;;;;;;;;;6206229;23;20008;-41
2021/12/22 12:22:05;;;;;;;7.95;4.80;;;;;;;;;;6206139;23;20019;-44
2021/12/22 12:24:31;;;;;;;7.32;5.00;;;;;;;;;;6205033;23;20036;-43
2021/12/22 12:27:01;;;;;;;9.80;5.25;;;;;;;;;;6207313;23;20019;-40
2021/12/22 12:30:01;;;;;;;10.95;6.50;;;;;;;;;;6207188;23;20044;-43
2021/12/22 12:32:38;;;;;;;7.05;4.63;;;;;;;;;;6114332;23;20045;-44
2021/12/22 12:35:28;;;;;;;9.73;5.45;;;;;;;;;;6196517;23;20023;-44
2021/12/22 12:37:54;;;;;;;;;;;;;;;;;;6208876;23;20480;-45
2021/12/22 12:40:19;;;;;;;11.63;4.47;;;;;;;;;;6206644;23;19942;-42
2021/12/22 12:43:00;;;;;;;8.65;4.32;;;;;;;;;;6206820;23;20019;-43
2021/12/22 12:45:48;;;;;;;11.25;5.22;;;;;;;;;;6206174;23;20004;-43
2021/12/22 12:48:27;;;;;;;5.72;4.72;;;;;;;;;;6194219;23;20080;-43
2021/12/22 12:51:11;;;;;;;8.23;4.93;;;;;;;;;;6208315;23;20028;-45
2021/12/22 12:53:48;;;;;;;12.02;5.82;;;;;;;;;;6206795;23;20079;-45
2021/12/22 12:56:14;;;;;;;14.55;7.10;;;;;;;;;;6206870;23;20449;-42
2021/12/22 12:58:56;;;;;;;9.18;4.90;;;;;;;;;;6207267;23;20031;-42
2021/12/22 13:01:40;;;;;;;11.10;4.60;;;;;;;;;;6203611;23;20009;-45
2021/12/22 13:04:26;;;;;;;6.63;4.75;;;;;;;;;;6203332;23;20020;-45
2021/12/22 13:07:00;;;;;;;6.60;4.88;;;;;;;;;;6227459;23;20016;-45
2021/12/22 13:09:31;;;;;;;7.15;4.65;;;;;;;;;;6203290;23;20453;-44
2021/12/22 13:12:02;;;;;;;7.70;4.53;;;;;;;;;;6203688;23;20020;-44
2021/12/22 13:17:16;;;;;;;8.63;4.60;;;;;;;;;;6203826;23;20067;-43
2021/12/22 13:19:42;;;;;;;9.25;4.97;;;;;;;;;;6204893;23;20013;-43
2021/12/22 13:22:19;;;;;;;6.82;4.38;;;;;;;;;;6205293;23;20084;-41
2021/12/22 13:24:45;;;;;;;7.85;5.00;;;;;;;;;;6204174;23;20032;-46
2021/12/22 13:27:10;;;;;;;6.82;4.30;;;;;;;;;;6204681;23;20000;-43
2021/12/22 13:29:36;;;;;;;9.07;5.25;;;;;;;;;;6203231;23;20522;-44
2021/12/22 13:32:08;;;;;;;4.90;4.30;;;;;;;;;;6203150;23;20009;-45
2021/12/22 13:34:43;;;;;;;11.05;4.97;;;;;;;;;;6203667;23;20072;-44
2021/12/22 13:37:09;;;;;;;8.27;4.78;;;;;;;;;;6203202;23;20016;-42
2021/12/22 13:39:41;;;;;;;8.98;4.60;;;;;;;;;;6202865;23;20051;-42
2021/12/22 13:42:07;;;;;;;11.70;5.03;;;;;;;;;;6205270;23;20013;-44
2021/12/22 13:44:36;;;;;;;6.78;4.78;;;;;;;;;;6200358;23;20508;-43
2021/12/22 13:47:02;;;;;;;5.82;4.45;;;;;;;;;;6205509;23;20027;-42
2021/12/22 13:49:27;;;;;;;5.85;4.32;;;;;;;;;;6201947;23;20013;-43
2021/12/22 13:51:53;;;;;;;7.28;4.60;;;;;;;;;;6204914;23;20044;-44
2021/12/22 13:54:28;;;;;;;6.75;4.70;;;;;;;;;;6202922;23;20048;-44
2021/12/22 13:56:57;;;;;;;5.38;4.28;;;;;;;;;;6206742;23;20012;-43
2021/12/22 13:59:23;;;;;;;8.90;4.50;;;;;;;;;;6205376;23;20023;-44
2021/12/22 14:01:50;;;;;;;14.35;6.22;;;;;;;;;;6207952;23;20523;-42
2021/12/22 14:04:17;;;;;;;11.82;4.68;;;;;;;;;;6206126;23;20024;-42
2021/12/22 14:06:45;;;;;;;9.57;5.22;;;;;;;;;;6230687;23;20107;-45
2021/12/22 14:09:17;;;;;;;7.72;5.15;;;;;;;;;;6207029;23;20068;-43
2021/12/22 14:11:46;;;;;;;5.60;4.20;;;;;;;;;;6205538;23;20013;-44
2021/12/22 14:14:33;;;;;;;10.75;5.40;;;;;;;;;;6207103;23;20107;-42
2021/12/22 14:17:14;;;;;;;9.07;4.97;;;;;;;;;;6208018;23;20054;-43
2021/12/22 14:19:41;;;;;;;7.30;4.75;;;;;;;;;;6207046;23;20441;-42
2021/12/22 14:22:13;;;;;;;10.90;5.32;;;;;;;;;;6205910;23;20021;-43
2021/12/22 14:24:40;;;;;;;6.55;4.90;;;;;;;;;;6206668;23;20012;-44
2021/12/22 14:27:06;;;;;;;10.27;5.70;;;;;;;;;;6206930;23;20497;-44
2021/12/22 14:29:32;;;;;;;8.63;5.72;;;;;;;;;;6206893;23;20013;-42
2021/12/22 14:32:00;;;;;;;9.52;5.18;;;;;;;;;;6205878;23;20032;-43
2021/12/22 14:34:26;;;;;;;6.60;4.95;;;;;;;;;;6206475;23;20020;-43
2021/12/22 14:36:52;;;;;;;8.40;4.57;;;;;;;;;;6207274;23;20384;-45
2021/12/22 14:39:17;;;;;;;7.53;5.63;;;;;;;;;;6206588;23;20016;-43
2021/12/22 14:41:43;;;;;;;6.35;4.93;;;;;;;;;;6206948;23;20517;-44
2021/12/22 14:44:19;;;;;;;8.43;5.25;;;;;;;;;;6206996;23;20019;-44
2021/12/22 14:46:44;;;;;;;9.48;5.20;;;;;;;;;;6206194;23;20017;-43
2021/12/22 14:49:13;;;;;;;9.57;5.50;;;;;;;;;;6207095;23;20021;-43
2021/12/22 14:51:39;;;;;;;9.85;5.65;;;;;;;;;;6205784;23;20021;-43
2021/12/22 14:54:06;;;;;;;9.13;5.28;;;;;;;;;;6207231;23;20024;-42
2021/12/22 14:56:42;;;;;;;11.30;5.75;;;;;;;;;;6205854;23;20040;-44
2021/12/22 14:59:08;;;;;;;6.72;5.40;;;;;;;;;;6206141;23;20039;-42
2021/12/22 15:01:35;;;;;;;15.07;5.97;;;;;;;;;;6206582;23;20031;-46